Time;durP1;ratioP1;P1;durP2;ratioP2;P2;SDS_P1;SDS_P2;PMS_P1;PMS_P2;Temp;Humidity;BMP_temperature;BMP_pressure;BME280_temperature;BME280_humidity;BME280_pressure;Samples;Min_cycle;Max_cycle;Signal;HPM_P1;HPM_P2
2022/05/12 00:00:03;;;;;;;4.70;3.00;;;;;;;;;;5001481;28;20449;-79
2022/05/12 00:02:30;;;;;;;5.57;3.10;;;;;;;;;;5005626;28;20431;-79
2022/05/12 00:04:56;;;;;;;7.03;3.42;;;;;;;;;;5004462;28;20957;-79
2022/05/12 00:07:22;;;;;;;5.93;3.53;;;;;;;;;;5000425;28;20941;-80
2022/05/12 00:09:49;;;;;;;4.88;3.40;;;;;;;;;;4998404;28;20433;-82
2022/05/12 00:12:15;;;;;;;3.30;3.00;;;;;;;;;;5006237;28;20854;-81
2022/05/12 00:14:42;;;;;;;6.90;3.58;;;;;;;;;;5004426;28;20742;-80
2022/05/12 00:17:09;;;;;;;5.13;3.20;;;;;;;;;;5003446;28;20434;-82
2022/05/12 00:19:36;;;;;;;5.30;3.35;;;;;;;;;;5002432;28;20438;-80
2022/05/12 00:22:02;;;;;;;6.30;3.55;;;;;;;;;;5003638;28;20423;-81
2022/05/12 00:24:28;;;;;;;4.53;3.30;;;;;;;;;;5003476;28;20440;-81
2022/05/12 00:26:54;;;;;;;5.30;3.20;;;;;;;;;;5004950;28;20962;-80
2022/05/12 00:29:21;;;;;;;5.20;3.40;;;;;;;;;;5004097;28;20916;-80
2022/05/12 00:31:48;;;;;;;5.90;3.85;;;;;;;;;;5002246;28;20898;-80
2022/05/12 00:34:16;;;;;;;4.60;3.70;;;;;;;;;;5004535;28;20445;-80
2022/05/12 00:36:43;;;;;;;9.43;4.17;;;;;;;;;;5005384;28;20429;-79
2022/05/12 00:39:09;;;;;;;4.78;3.22;;;;;;;;;;5002939;28;20479;-80
2022/05/12 00:41:36;;;;;;;6.25;3.53;;;;;;;;;;5004645;28;20430;-80
2022/05/12 00:44:05;;;;;;;6.13;3.60;;;;;;;;;;5003152;28;20915;-80
2022/05/12 00:46:32;;;;;;;6.18;3.17;;;;;;;;;;5004870;28;20459;-79
2022/05/12 00:49:00;;;;;;;6.07;3.38;;;;;;;;;;5002465;28;20516;-81
2022/05/12 00:51:31;;;;;;;5.70;3.17;;;;;;;;;;5001293;28;20428;-81
2022/05/12 00:53:58;;;;;;;6.18;3.00;;;;;;;;;;5004916;28;21177;-81
2022/05/12 00:56:25;;;;;;;5.65;3.20;;;;;;;;;;5003590;28;20491;-80
2022/05/12 00:58:52;;;;;;;6.72;3.55;;;;;;;;;;5005291;28;20444;-82
2022/05/12 01:01:19;;;;;;;8.63;3.42;;;;;;;;;;5002558;28;20437;-80
2022/05/12 01:03:45;;;;;;;7.70;3.50;;;;;;;;;;4998770;28;20433;-78
2022/05/12 01:06:14;;;;;;;8.27;3.80;;;;;;;;;;4998881;28;20461;-78
2022/05/12 01:08:42;;;;;;;6.93;4.00;;;;;;;;;;4996853;28;20441;-79
2022/05/12 01:11:11;;;;;;;8.90;4.30;;;;;;;;;;4998780;28;20430;-81
2022/05/12 01:13:38;;;;;;;9.38;3.70;;;;;;;;;;5000028;28;20498;-79
2022/05/12 01:16:05;;;;;;;8.40;4.07;;;;;;;;;;5001169;28;20567;-80
2022/05/12 01:18:32;;;;;;;9.23;4.68;;;;;;;;;;4998360;28;20483;-78
2022/05/12 01:20:59;;;;;;;7.80;4.07;;;;;;;;;;5000751;28;20438;-78
2022/05/12 01:23:27;;;;;;;10.57;4.40;;;;;;;;;;4998628;28;20974;-78
2022/05/12 01:25:58;;;;;;;10.55;4.30;;;;;;;;;;5000002;28;20768;-78
2022/05/12 01:28:25;;;;;;;7.28;4.65;;;;;;;;;;4998856;28;20511;-79
2022/05/12 01:30:51;;;;;;;11.52;4.20;;;;;;;;;;5000556;28;20428;-81
2022/05/12 01:33:17;;;;;;;8.73;3.58;;;;;;;;;;4999448;28;20450;-78
2022/05/12 01:35:44;;;;;;;8.38;2.80;;;;;;;;;;5002190;28;20445;-79
2022/05/12 01:38:10;;;;;;;4.05;2.00;;;;;;;;;;4997472;28;20429;-78
2022/05/12 01:40:38;;;;;;;3.03;1.60;;;;;;;;;;5001675;28;20492;-78
2022/05/12 01:43:04;;;;;;;6.43;2.10;;;;;;;;;;5000451;28;21005;-78
2022/05/12 01:45:30;;;;;;;5.73;2.30;;;;;;;;;;5001250;28;20938;-79
2022/05/12 01:47:57;;;;;;;5.60;1.80;;;;;;;;;;4999894;28;20834;-79
2022/05/12 01:50:23;;;;;;;6.68;1.83;;;;;;;;;;5000747;28;20898;-79
2022/05/12 01:52:49;;;;;;;3.97;2.30;;;;;;;;;;4999152;28;21074;-80
2022/05/12 01:55:18;;;;;;;10.32;2.90;;;;;;;;;;5000656;28;20432;-79
2022/05/12 01:57:45;;;;;;;5.85;2.42;;;;;;;;;;4998456;28;20518;-79
2022/05/12 02:00:13;;;;;;;6.82;2.88;;;;;;;;;;4999146;28;20428;-78
2022/05/12 02:02:39;;;;;;;9.02;3.60;;;;;;;;;;4998982;28;20498;-79
2022/05/12 02:05:09;;;;;;;7.60;3.45;;;;;;;;;;4999769;28;20511;-78
2022/05/12 02:07:35;;;;;;;7.00;4.13;;;;;;;;;;4997621;28;20437;-77
2022/05/12 02:10:02;;;;;;;6.00;3.60;;;;;;;;;;4999419;28;20428;-79
2022/05/12 02:12:28;;;;;;;6.40;4.30;;;;;;;;;;4995448;28;20434;-81
2022/05/12 02:14:55;;;;;;;6.70;4.22;;;;;;;;;;4998963;28;20424;-77
2022/05/12 02:17:22;;;;;;;7.50;4.60;;;;;;;;;;4999302;28;20429;-78
2022/05/12 02:19:48;;;;;;;7.97;5.10;;;;;;;;;;4998835;28;20412;-80
2022/05/12 02:22:14;;;;;;;6.43;4.00;;;;;;;;;;4999075;28;20430;-77
2022/05/12 02:24:40;;;;;;;6.20;2.75;;;;;;;;;;4997221;28;20859;-78
2022/05/12 02:27:07;;;;;;;4.83;1.90;;;;;;;;;;4999380;28;20914;-79
2022/05/12 02:29:33;;;;;;;5.30;1.63;;;;;;;;;;4999526;28;21012;-80
2022/05/12 02:32:00;;;;;;;4.20;1.60;;;;;;;;;;4999295;28;20505;-79
2022/05/12 02:34:27;;;;;;;3.60;1.63;;;;;;;;;;5000221;28;21321;-79
2022/05/12 02:37:00;;;;;;;4.80;1.42;;;;;;;;;;5000536;28;20932;-79
2022/05/12 02:39:27;;;;;;;3.58;1.50;;;;;;;;;;5000143;28;20857;-81
2022/05/12 02:41:53;;;;;;;4.40;1.50;;;;;;;;;;4999545;28;20403;-78
2022/05/12 02:44:20;;;;;;;2.03;1.50;;;;;;;;;;4996953;28;20437;-78
2022/05/12 02:46:46;;;;;;;2.75;1.20;;;;;;;;;;4999833;28;20432;-79
2022/05/12 02:49:13;;;;;;;2.80;1.40;;;;;;;;;;5000243;28;20428;-79
2022/05/12 02:51:40;;;;;;;4.25;1.77;;;;;;;;;;5000923;28;20483;-79
2022/05/12 02:54:06;;;;;;;2.95;1.52;;;;;;;;;;4999456;28;20439;-79
2022/05/12 02:56:32;;;;;;;6.82;1.67;;;;;;;;;;5000542;28;20418;-79
2022/05/12 02:58:59;;;;;;;6.70;1.98;;;;;;;;;;5038868;23;20903;-79
2022/05/12 03:01:25;;;;;;;4.47;1.95;;;;;;;;;;5026162;28;20428;-79
2022/05/12 03:03:51;;;;;;;5.70;1.90;;;;;;;;;;5021730;28;20427;-80
2022/05/12 03:06:19;;;;;;;5.15;2.00;;;;;;;;;;5022541;28;20905;-79
2022/05/12 03:08:45;;;;;;;6.35;2.30;;;;;;;;;;5023658;28;20443;-79
2022/05/12 03:11:11;;;;;;;3.88;2.30;;;;;;;;;;5010586;28;20428;-79
2022/05/12 03:13:38;;;;;;;4.20;1.70;;;;;;;;;;5007306;28;20426;-79
2022/05/12 03:16:04;;;;;;;3.42;1.65;;;;;;;;;;5006101;28;20954;-79
2022/05/12 03:18:31;;;;;;;3.25;1.98;;;;;;;;;;5013841;28;20822;-78
2022/05/12 03:20:57;;;;;;;3.85;2.00;;;;;;;;;;5004093;28;20486;-78
2022/05/12 03:23:25;;;;;;;7.50;2.70;;;;;;;;;;5006315;28;20905;-79
2022/05/12 03:25:52;;;;;;;7.05;2.40;;;;;;;;;;5008440;28;20436;-79
2022/05/12 03:28:19;;;;;;;8.98;2.22;;;;;;;;;;5008981;28;20433;-79
2022/05/12 03:30:45;;;;;;;6.53;2.60;;;;;;;;;;5007556;28;20937;-77
2022/05/12 03:33:12;;;;;;;5.05;2.22;;;;;;;;;;5014511;28;20449;-80
2022/05/12 03:35:38;;;;;;;6.63;2.10;;;;;;;;;;5014500;28;20894;-79
2022/05/12 03:38:04;;;;;;;5.45;2.10;;;;;;;;;;5012460;28;20429;-77
2022/05/12 03:40:32;;;;;;;6.78;2.30;;;;;;;;;;5009514;28;20418;-79
2022/05/12 03:42:58;;;;;;;6.75;2.50;;;;;;;;;;5011587;28;21006;-79
2022/05/12 03:45:24;;;;;;;6.50;2.17;;;;;;;;;;5008786;28;20472;-79
2022/05/12 03:47:50;;;;;;;7.23;2.63;;;;;;;;;;5012940;28;20917;-80
2022/05/12 03:50:18;;;;;;;3.90;2.37;;;;;;;;;;5005875;28;20962;-80
2022/05/12 03:52:44;;;;;;;6.82;2.65;;;;;;;;;;5014016;28;20420;-79
2022/05/12 03:55:12;;;;;;;6.37;2.50;;;;;;;;;;5013063;28;20501;-80
2022/05/12 03:57:40;;;;;;;6.13;2.78;;;;;;;;;;5015858;28;20486;-80
2022/05/12 04:00:08;;;;;;;6.93;2.47;;;;;;;;;;5010985;28;20425;-80
2022/05/12 04:02:34;;;;;;;3.50;2.22;;;;;;;;;;5006162;28;20488;-80
2022/05/12 04:05:00;;;;;;;9.03;3.10;;;;;;;;;;5017912;28;20952;-80
2022/05/12 04:07:27;;;;;;;7.47;3.10;;;;;;;;;;5013515;28;20429;-79
2022/05/12 04:09:53;;;;;;;8.50;3.13;;;;;;;;;;5009196;28;20440;-79
2022/05/12 04:12:19;;;;;;;6.75;2.97;;;;;;;;;;5014410;28;20464;-80
2022/05/12 04:14:47;;;;;;;7.07;3.20;;;;;;;;;;5009974;28;20426;-80
2022/05/12 04:17:16;;;;;;;8.25;3.20;;;;;;;;;;5013272;28;20415;-80
2022/05/12 04:19:42;;;;;;;6.30;3.50;;;;;;;;;;5012794;28;20426;-81
2022/05/12 04:22:09;;;;;;;6.30;3.08;;;;;;;;;;5016538;28;20418;-79
2022/05/12 04:24:35;;;;;;;6.07;3.40;;;;;;;;;;5017509;28;20424;-79
2022/05/12 04:27:01;;;;;;;6.63;3.42;;;;;;;;;;5015979;28;20534;-79
2022/05/12 04:29:28;;;;;;;6.27;3.50;;;;;;;;;;5011079;28;20416;-79
2022/05/12 04:31:56;;;;;;;5.47;3.00;;;;;;;;;;5007586;28;20405;-80
2022/05/12 04:37:06;;;;;;;8.25;3.63;;;;;;;;;;5013540;28;20419;-79
2022/05/12 04:39:32;;;;;;;6.82;2.90;;;;;;;;;;5008451;28;20429;-79
2022/05/12 04:41:59;;;;;;;5.83;3.27;;;;;;;;;;5012543;28;20920;-80
2022/05/12 04:44:26;;;;;;;5.20;2.80;;;;;;;;;;5013185;28;20459;-81
2022/05/12 04:46:53;;;;;;;5.27;2.77;;;;;;;;;;5009902;28;20481;-80
2022/05/12 04:49:20;;;;;;;5.38;2.75;;;;;;;;;;5003425;28;20434;-78
2022/05/12 04:51:46;;;;;;;7.00;2.80;;;;;;;;;;5009497;28;20436;-79
2022/05/12 04:54:14;;;;;;;7.05;2.78;;;;;;;;;;5008691;28;20435;-79
2022/05/12 04:56:41;;;;;;;5.72;3.05;;;;;;;;;;5010817;28;20494;-79
2022/05/12 04:59:08;;;;;;;3.88;3.00;;;;;;;;;;5010554;28;20433;-79
2022/05/12 05:01:34;;;;;;;4.70;2.90;;;;;;;;;;5008722;28;20451;-78
2022/05/12 05:04:01;;;;;;;7.93;2.90;;;;;;;;;;5013647;28;20520;-79
2022/05/12 05:06:28;;;;;;;5.45;2.88;;;;;;;;;;5008708;28;20433;-80
2022/05/12 05:08:55;;;;;;;6.57;2.80;;;;;;;;;;5007215;28;20429;-79
2022/05/12 05:11:21;;;;;;;5.47;2.80;;;;;;;;;;5008224;28;20436;-79
2022/05/12 05:13:47;;;;;;;6.82;2.95;;;;;;;;;;5013218;28;20502;-79
2022/05/12 05:16:13;;;;;;;8.32;3.28;;;;;;;;;;5006331;28;20432;-79
2022/05/12 05:18:40;;;;;;;3.77;2.80;;;;;;;;;;5014259;28;20430;-79
2022/05/12 05:21:07;;;;;;;7.50;3.28;;;;;;;;;;5011811;28;20484;-77
2022/05/12 05:23:35;;;;;;;8.07;3.00;;;;;;;;;;5009873;28;20545;-80
2022/05/12 05:26:02;;;;;;;3.37;2.90;;;;;;;;;;5005539;28;20420;-79
2022/05/12 05:28:28;;;;;;;4.20;2.80;;;;;;;;;;5005594;28;20428;-79
2022/05/12 05:30:55;;;;;;;7.63;3.30;;;;;;;;;;5009181;28;20432;-80
2022/05/12 05:33:21;;;;;;;7.57;3.38;;;;;;;;;;5006374;28;20425;-80
2022/05/12 05:35:47;;;;;;;6.38;3.50;;;;;;;;;;5008926;28;20959;-78
2022/05/12 05:38:14;;;;;;;8.32;3.10;;;;;;;;;;5010443;28;20918;-79
2022/05/12 05:40:41;;;;;;;5.15;2.97;;;;;;;;;;5003231;28;20433;-78
2022/05/12 05:43:08;;;;;;;5.55;3.03;;;;;;;;;;5003570;28;20427;-78
2022/05/12 05:45:34;;;;;;;5.28;3.63;;;;;;;;;;5007139;28;20442;-80
2022/05/12 05:48:02;;;;;;;5.72;3.55;;;;;;;;;;5008120;28;20546;-77
2022/05/12 05:50:30;;;;;;;7.90;3.00;;;;;;;;;;5003927;28;20820;-79
2022/05/12 05:55:42;;;;;;;8.50;3.30;;;;;;;;;;5011314;28;20775;-79
2022/05/12 05:58:09;;;;;;;5.97;3.15;;;;;;;;;;5009301;28;20412;-78
2022/05/12 06:00:36;;;;;;;9.43;2.97;;;;;;;;;;5013060;28;20765;-79
2022/05/12 06:03:03;;;;;;;7.27;3.10;;;;;;;;;;5006732;28;21378;-78
2022/05/12 06:05:29;;;;;;;7.43;3.15;;;;;;;;;;5007529;28;20418;-79
2022/05/12 06:07:57;;;;;;;7.10;3.20;;;;;;;;;;5011389;28;20413;-78
2022/05/12 06:10:24;;;;;;;6.35;2.92;;;;;;;;;;5006285;28;20472;-78
2022/05/12 06:12:52;;;;;;;6.00;3.20;;;;;;;;;;5009729;28;20416;-79
2022/05/12 06:15:19;;;;;;;9.30;2.85;;;;;;;;;;5003039;28;20451;-78
2022/05/12 06:17:45;;;;;;;6.78;3.17;;;;;;;;;;5012692;28;20467;-78
2022/05/12 06:20:12;;;;;;;6.07;2.63;;;;;;;;;;5005168;28;20478;-80
2022/05/12 06:22:38;;;;;;;6.75;3.50;;;;;;;;;;5004214;28;20421;-79
2022/05/12 06:25:07;;;;;;;5.47;2.87;;;;;;;;;;5009062;28;20409;-78
2022/05/12 06:27:33;;;;;;;7.90;3.20;;;;;;;;;;5009025;28;20413;-79
2022/05/12 06:30:01;;;;;;;9.00;3.80;;;;;;;;;;5009172;28;20889;-79
2022/05/12 06:32:28;;;;;;;9.27;3.20;;;;;;;;;;5005851;28;20497;-80
2022/05/12 06:34:54;;;;;;;6.68;3.60;;;;;;;;;;5005586;28;20428;-79
2022/05/12 06:37:21;;;;;;;7.57;3.25;;;;;;;;;;5006543;28;20424;-79
2022/05/12 06:39:47;;;;;;;9.00;3.47;;;;;;;;;;5006489;28;20459;-79
2022/05/12 06:42:14;;;;;;;10.10;3.60;;;;;;;;;;5009906;28;20417;-79
2022/05/12 06:44:41;;;;;;;5.73;2.80;;;;;;;;;;5008308;28;20839;-79
2022/05/12 06:47:09;;;;;;;7.60;3.40;;;;;;;;;;5010321;28;20413;-79
2022/05/12 06:49:35;;;;;;;7.25;3.30;;;;;;;;;;5007481;28;20484;-79
2022/05/12 06:52:03;;;;;;;7.13;3.08;;;;;;;;;;5010740;28;20403;-80
2022/05/12 06:54:30;;;;;;;10.98;4.05;;;;;;;;;;5013994;28;20448;-78
2022/05/12 06:56:56;;;;;;;7.05;3.38;;;;;;;;;;5007104;28;20436;-81
2022/05/12 06:59:22;;;;;;;8.30;3.77;;;;;;;;;;5009398;28;20439;-80
2022/05/12 07:01:48;;;;;;;9.05;4.00;;;;;;;;;;5011540;28;20776;-79
2022/05/12 07:04:16;;;;;;;8.55;3.60;;;;;;;;;;5015352;28;21115;-79
2022/05/12 07:06:42;;;;;;;6.03;3.60;;;;;;;;;;5010460;28;20528;-80
2022/05/12 07:09:09;;;;;;;6.97;3.90;;;;;;;;;;5012007;28;20482;-78
2022/05/12 07:11:35;;;;;;;9.32;3.58;;;;;;;;;;5012464;28;20895;-78
2022/05/12 07:14:02;;;;;;;8.45;3.70;;;;;;;;;;5016386;28;20440;-79
2022/05/12 07:16:28;;;;;;;9.27;4.05;;;;;;;;;;5013607;28;20412;-80
2022/05/12 07:18:54;;;;;;;6.85;3.92;;;;;;;;;;5014238;28;20426;-80
2022/05/12 07:26:51;;;;;;;7.10;3.00;;;;;;;;;;5013122;28;20412;-79
2022/05/12 07:29:18;;;;;;;8.40;2.88;;;;;;;;;;5013510;28;20494;-79
2022/05/12 07:31:44;;;;;;;6.43;3.47;;;;;;;;;;5010654;28;20423;-79
2022/05/12 07:34:10;;;;;;;5.57;2.80;;;;;;;;;;5008843;28;20428;-80
2022/05/12 07:36:40;;;;;;;5.07;2.92;;;;;;;;;;5010505;28;20469;-80
2022/05/12 07:39:07;;;;;;;6.65;3.10;;;;;;;;;;5012220;28;20447;-79
2022/05/12 07:41:33;;;;;;;10.27;3.47;;;;;;;;;;5007382;28;20482;-78
2022/05/12 07:44:00;;;;;;;8.57;3.40;;;;;;;;;;5007198;28;20440;-79
2022/05/12 07:46:27;;;;;;;6.70;3.25;;;;;;;;;;5007266;28;20462;-78
2022/05/12 07:48:53;;;;;;;7.35;3.20;;;;;;;;;;5004025;28;20429;-78
2022/05/12 07:51:20;;;;;;;5.28;2.80;;;;;;;;;;5012177;28;20782;-79
2022/05/12 07:53:48;;;;;;;6.72;3.70;;;;;;;;;;5005634;28;20410;-78
2022/05/12 07:56:15;;;;;;;8.23;3.58;;;;;;;;;;5007984;28;20417;-78
2022/05/12 07:58:42;;;;;;;8.32;3.80;;;;;;;;;;5012340;28;20421;-80
2022/05/12 08:01:08;;;;;;;7.70;4.00;;;;;;;;;;5014423;28;20417;-79
2022/05/12 08:03:35;;;;;;;7.30;3.45;;;;;;;;;;5010782;28;20456;-79
2022/05/12 08:06:01;;;;;;;5.78;3.25;;;;;;;;;;5010460;28;20451;-79
2022/05/12 08:08:28;;;;;;;7.40;3.60;;;;;;;;;;5006405;28;20422;-80
2022/05/12 08:10:56;;;;;;;6.88;3.38;;;;;;;;;;5010315;28;20412;-79
2022/05/12 08:13:22;;;;;;;6.97;3.37;;;;;;;;;;5004319;28;20430;-79
2022/05/12 08:15:49;;;;;;;5.43;2.90;;;;;;;;;;5008366;28;20501;-79
2022/05/12 08:18:17;;;;;;;6.43;3.00;;;;;;;;;;5005798;28;20426;-79
2022/05/12 08:20:44;;;;;;;4.40;2.42;;;;;;;;;;5002754;28;20429;-79
2022/05/12 08:23:12;;;;;;;6.43;2.70;;;;;;;;;;5000796;28;20467;-79
2022/05/12 08:25:38;;;;;;;6.53;2.70;;;;;;;;;;5006289;28;20482;-79
2022/05/12 08:28:06;;;;;;;6.72;2.67;;;;;;;;;;5004972;28;20429;-76
2022/05/12 08:30:32;;;;;;;7.80;3.30;;;;;;;;;;5005909;28;20511;-79
2022/05/12 08:32:59;;;;;;;5.45;2.70;;;;;;;;;;5006754;28;21074;-78
2022/05/12 08:35:25;;;;;;;6.93;2.80;;;;;;;;;;5003439;28;20434;-79
2022/05/12 08:37:52;;;;;;;4.30;2.80;;;;;;;;;;5005818;28;20469;-78
2022/05/12 08:40:20;;;;;;;6.10;2.50;;;;;;;;;;5005796;28;20409;-78
2022/05/12 08:42:47;;;;;;;6.55;2.60;;;;;;;;;;5004258;28;20480;-79
2022/05/12 08:45:18;;;;;;;8.00;2.67;;;;;;;;;;5003701;28;20414;-80
2022/05/12 08:47:45;;;;;;;4.85;2.40;;;;;;;;;;5002921;28;20920;-77
2022/05/12 08:50:15;;;;;;;6.00;2.90;;;;;;;;;;5004125;28;20457;-78
2022/05/12 08:52:44;;;;;;;4.45;2.20;;;;;;;;;;5003968;28;20412;-79
2022/05/12 08:55:13;;;;;;;5.45;2.60;;;;;;;;;;5005141;28;20430;-78
2022/05/12 08:57:43;;;;;;;5.70;2.40;;;;;;;;;;5013160;28;20413;-79
2022/05/12 09:00:11;;;;;;;4.38;2.25;;;;;;;;;;5024217;23;20444;-81
2022/05/12 09:02:43;;;;;;;6.40;2.50;;;;;;;;;;5020683;28;20835;-80
2022/05/12 09:05:11;;;;;;;9.13;2.50;;;;;;;;;;5021646;28;20918;-79
2022/05/12 09:07:40;;;;;;;6.38;2.03;;;;;;;;;;5021971;28;20417;-80
2022/05/12 09:10:10;;;;;;;5.20;1.90;;;;;;;;;;5020488;28;20527;-83
2022/05/12 09:12:38;;;;;;;3.57;1.70;;;;;;;;;;5020533;28;20412;-80
2022/05/12 09:15:09;;;;;;;3.55;1.80;;;;;;;;;;5022063;28;20463;-79
2022/05/12 09:17:37;;;;;;;2.60;1.50;;;;;;;;;;5020707;28;20418;-81
2022/05/12 09:20:05;;;;;;;4.60;1.63;;;;;;;;;;5018263;28;20431;-81
2022/05/12 09:22:31;;;;;;;2.90;1.70;;;;;;;;;;5016042;28;20517;-81
2022/05/12 09:24:58;;;;;;;4.90;2.00;;;;;;;;;;5019559;28;20464;-80
2022/05/12 09:27:29;;;;;;;4.85;1.90;;;;;;;;;;5020680;28;20476;-80
2022/05/12 09:29:55;;;;;;;5.07;1.70;;;;;;;;;;5019991;28;20482;-81
2022/05/12 09:32:23;;;;;;;5.68;2.10;;;;;;;;;;5018415;28;20487;-80
2022/05/12 09:35:04;;;;;;;3.78;1.90;;;;;;;;;;5019190;28;20443;-79
2022/05/12 09:37:32;;;;;;;2.38;1.58;;;;;;;;;;5021781;28;20471;-79
2022/05/12 09:40:01;;;;;;;4.00;1.38;;;;;;;;;;5018790;28;20478;-81
2022/05/12 09:42:39;;;;;;;4.97;1.80;;;;;;;;;;5090098;27;20396;-80
2022/05/12 09:45:07;;;;;;;3.70;1.10;;;;;;;;;;5078396;28;20415;-82
2022/05/12 09:47:34;;;;;;;3.83;1.38;;;;;;;;;;5081005;28;20552;-81
2022/05/12 09:50:16;;;;;;;2.60;1.33;;;;;;;;;;5086837;28;20821;-82
2022/05/12 09:52:43;;;;;;;4.68;1.77;;;;;;;;;;5087951;28;20426;-81
2022/05/12 09:55:12;;;;;;;4.85;1.40;;;;;;;;;;5086822;28;20415;-81
2022/05/12 09:57:44;;;;;;;2.67;1.40;;;;;;;;;;5086226;28;20403;-80
2022/05/12 10:00:24;;;;;;;3.80;1.20;;;;;;;;;;5086315;28;20435;-81
2022/05/12 10:08:24;;;;;;;2.47;1.30;;;;;;;;;;5087301;28;21299;-80
2022/05/12 10:10:54;;;;;;;4.90;1.60;;;;;;;;;;5087432;28;20463;-81
2022/05/12 10:13:25;;;;;;;2.45;1.00;;;;;;;;;;5087028;28;20470;-81
2022/05/12 10:15:52;;;;;;;4.88;1.50;;;;;;;;;;5087490;28;20924;-81
2022/05/12 10:18:26;;;;;;;4.65;1.60;;;;;;;;;;5087090;28;20419;-81
2022/05/12 10:20:54;;;;;;;8.80;1.85;;;;;;;;;;5087781;28;20430;-81
2022/05/12 10:23:24;;;;;;;3.35;1.10;;;;;;;;;;5087301;28;20411;-80
2022/05/12 10:25:58;;;;;;;3.00;1.40;;;;;;;;;;5088439;28;20440;-81
2022/05/12 10:28:29;;;;;;;4.38;1.50;;;;;;;;;;5084364;28;20570;-81
2022/05/12 10:30:59;;;;;;;4.20;1.30;;;;;;;;;;5088035;28;20422;-82
2022/05/12 10:33:29;;;;;;;3.38;1.30;;;;;;;;;;5084062;28;20504;-79
2022/05/12 10:35:59;;;;;;;2.85;1.30;;;;;;;;;;5083800;28;20817;-81
2022/05/12 10:38:31;;;;;;;4.15;1.30;;;;;;;;;;5083179;28;20418;-79
2022/05/12 10:41:00;;;;;;;6.15;1.70;;;;;;;;;;5091107;28;20433;-81
2022/05/12 10:43:42;;;;;;;2.50;1.30;;;;;;;;;;5102282;28;20522;-80
2022/05/12 10:46:12;;;;;;;3.40;1.40;;;;;;;;;;5102949;28;20425;-79
2022/05/12 10:48:42;;;;;;;4.15;1.58;;;;;;;;;;5103298;28;20894;-80
2022/05/12 10:51:14;;;;;;;3.30;1.30;;;;;;;;;;5104517;28;20425;-81
2022/05/12 10:53:48;;;;;;;4.70;1.55;;;;;;;;;;5090426;27;20421;-80
2022/05/12 10:56:29;;;;;;;3.40;1.35;;;;;;;;;;5088943;28;20523;-80
2022/05/12 10:59:02;;;;;;;3.58;1.42;;;;;;;;;;5087677;28;20410;-79
2022/05/12 11:01:32;;;;;;;3.73;1.30;;;;;;;;;;5090534;28;20429;-81
2022/05/12 11:04:01;;;;;;;2.47;1.40;;;;;;;;;;5089674;28;20461;-80
2022/05/12 11:06:29;;;;;;;2.58;1.70;;;;;;;;;;5085153;28;20499;-80
2022/05/12 11:08:57;;;;;;;3.40;1.60;;;;;;;;;;5088238;28;20421;-79
2022/05/12 11:11:25;;;;;;;2.65;1.20;;;;;;;;;;5090052;28;20405;-82
2022/05/12 11:13:53;;;;;;;2.53;1.40;;;;;;;;;;5089219;28;20446;-79
2022/05/12 11:16:22;;;;;;;5.47;1.70;;;;;;;;;;5090466;28;20414;-81
2022/05/12 11:18:52;;;;;;;4.45;1.65;;;;;;;;;;5087581;28;20417;-80
2022/05/12 11:21:19;;;;;;;3.00;1.58;;;;;;;;;;5087480;28;20849;-80
2022/05/12 11:23:51;;;;;;;3.55;1.70;;;;;;;;;;5089399;28;20414;-79
2022/05/12 11:26:21;;;;;;;4.82;1.95;;;;;;;;;;5091826;28;20402;-81
2022/05/12 11:31:41;;;;;;;2.17;1.20;;;;;;;;;;5070276;28;20391;-81
2022/05/12 11:34:09;;;;;;;4.03;1.80;;;;;;;;;;5069004;28;20415;-80
2022/05/12 11:36:39;;;;;;;2.03;1.30;;;;;;;;;;5067102;28;20502;-81
2022/05/12 11:39:23;;;;;;;5.85;1.60;;;;;;;;;;5068263;28;20407;-82
2022/05/12 11:41:49;;;;;;;5.65;1.70;;;;;;;;;;5068960;28;20427;-80
2022/05/12 11:44:26;;;;;;;2.10;1.30;;;;;;;;;;5068740;28;20428;-81
2022/05/12 11:47:14;;;;;;;2.72;1.40;;;;;;;;;;5069198;28;20410;-80
2022/05/12 11:49:50;;;;;;;2.80;1.27;;;;;;;;;;5062982;28;20419;-80
2022/05/12 11:52:26;;;;;;;4.60;1.30;;;;;;;;;;5069529;28;20415;-80
2022/05/12 11:54:54;;;;;;;2.70;1.20;;;;;;;;;;5068184;28;20434;-80
2022/05/12 11:57:21;;;;;;;2.13;1.17;;;;;;;;;;5069738;28;20438;-80
2022/05/12 11:59:49;;;;;;;2.65;1.25;;;;;;;;;;5067236;28;20444;-78
2022/05/12 12:02:39;;;;;;;2.95;1.42;;;;;;;;;;5070437;28;20416;-80
2022/05/12 12:05:08;;;;;;;5.22;1.55;;;;;;;;;;5048305;28;21049;-81
2022/05/12 12:07:53;;;;;;;4.72;1.50;;;;;;;;;;5070043;28;20433;-79
2022/05/12 12:10:30;;;;;;;4.80;1.60;;;;;;;;;;5067743;28;20507;-81
2022/05/12 12:13:01;;;;;;;4.80;1.77;;;;;;;;;;5069634;28;20418;-81
2022/05/12 12:16:00;;;;;;;2.58;1.10;;;;;;;;;;5065389;28;20423;-79
2022/05/12 12:18:57;;;;;;;4.72;1.50;;;;;;;;;;5068632;28;20411;-80
2022/05/12 12:21:41;;;;;;;3.60;1.50;;;;;;;;;;5068534;28;20453;-80
2022/05/12 12:24:16;;;;;;;2.60;1.27;;;;;;;;;;5066208;28;20457;-80
2022/05/12 12:26:44;;;;;;;3.40;1.50;;;;;;;;;;5067339;28;20423;-79
2022/05/12 12:29:18;;;;;;;2.60;1.50;;;;;;;;;;5067697;28;20419;-79
2022/05/12 12:31:45;;;;;;;5.30;1.60;;;;;;;;;;5066803;28;20423;-80
2022/05/12 12:34:14;;;;;;;4.00;1.55;;;;;;;;;;5068826;28;20415;-81
2022/05/12 12:36:53;;;;;;;2.63;1.30;;;;;;;;;;5069388;28;20423;-80
2022/05/12 12:39:32;;;;;;;5.00;1.40;;;;;;;;;;5068315;28;20446;-80
2022/05/12 12:42:05;;;;;;;3.95;1.60;;;;;;;;;;5068469;28;20461;-80
2022/05/12 12:44:31;;;;;;;2.70;1.60;;;;;;;;;;5068374;28;20411;-80
2022/05/12 12:47:03;;;;;;;3.50;1.60;;;;;;;;;;5067310;28;20465;-80
2022/05/12 12:49:30;;;;;;;4.97;1.50;;;;;;;;;;5068987;28;20762;-81
2022/05/12 12:51:58;;;;;;;2.72;1.52;;;;;;;;;;5066725;28;20453;-80
2022/05/12 12:57:14;;;;;;;4.30;1.75;;;;;;;;;;5067295;28;20410;-82
2022/05/12 12:59:43;;;;;;;4.05;1.40;;;;;;;;;;5067859;28;20494;-82
2022/05/12 13:02:23;;;;;;;2.97;1.60;;;;;;;;;;5068481;28;20900;-82
2022/05/12 13:04:54;;;;;;;3.10;1.33;;;;;;;;;;5066527;28;20429;-80
2022/05/12 13:07:24;;;;;;;2.70;1.40;;;;;;;;;;5067823;28;20450;-78
2022/05/12 13:09:52;;;;;;;3.00;1.40;;;;;;;;;;5065457;28;20484;-79
2022/05/12 13:12:21;;;;;;;1.70;1.30;;;;;;;;;;5067877;28;20473;-79
2022/05/12 13:14:49;;;;;;;2.30;1.40;;;;;;;;;;5063960;28;21412;-80
2022/05/12 13:17:19;;;;;;;3.10;1.50;;;;;;;;;;5068075;28;20416;-80
2022/05/12 13:19:46;;;;;;;3.85;1.40;;;;;;;;;;5067455;28;20416;-80
2022/05/12 13:22:22;;;;;;;3.70;1.40;;;;;;;;;;5067738;28;20423;-81
2022/05/12 13:24:49;;;;;;;2.50;1.20;;;;;;;;;;5068354;28;20487;-79
2022/05/12 13:27:19;;;;;;;4.88;1.75;;;;;;;;;;5069283;28;20426;-80
2022/05/12 13:29:47;;;;;;;4.18;1.70;;;;;;;;;;5067607;28;20957;-80
2022/05/12 13:32:32;;;;;;;7.40;2.20;;;;;;;;;;5066607;28;20476;-80
2022/05/12 13:35:03;;;;;;;4.25;1.55;;;;;;;;;;5068979;28;20423;-79
2022/05/12 13:37:31;;;;;;;4.20;2.00;;;;;;;;;;5070373;28;20836;-79
2022/05/12 13:40:00;;;;;;;3.72;1.40;;;;;;;;;;5068769;28;20408;-79
2022/05/12 13:42:30;;;;;;;4.18;1.50;;;;;;;;;;5069167;28;20412;-80
2022/05/12 13:44:59;;;;;;;4.13;1.77;;;;;;;;;;5068332;28;20427;-78
2022/05/12 13:47:35;;;;;;;2.70;1.25;;;;;;;;;;5069060;28;20921;-81
2022/05/12 13:50:02;;;;;;;4.80;1.80;;;;;;;;;;5065901;28;20503;-80
2022/05/12 13:52:39;;;;;;;2.65;1.25;;;;;;;;;;5068887;28;20503;-80
2022/05/12 13:55:16;;;;;;;4.53;1.90;;;;;;;;;;5067878;28;20970;-80
2022/05/12 13:57:43;;;;;;;4.85;1.55;;;;;;;;;;5068302;28;20963;-80
2022/05/12 14:00:19;;;;;;;4.20;1.55;;;;;;;;;;5068590;28;20411;-80
2022/05/12 14:02:47;;;;;;;4.10;1.58;;;;;;;;;;5068588;28;20415;-79
2022/05/12 14:05:15;;;;;;;4.90;1.63;;;;;;;;;;5069326;28;20516;-80
2022/05/12 14:07:42;;;;;;;2.90;1.30;;;;;;;;;;5067184;28;20426;-80
2022/05/12 14:10:14;;;;;;;4.60;1.70;;;;;;;;;;5066949;28;20412;-80
2022/05/12 14:19:13;;;;;;;2.80;1.45;;;;;;;;;;5069360;28;20407;-80
2022/05/12 14:20:55;;;;;;;6.13;1.60;;;;;;;;;;5068144;28;20506;-79
2022/05/12 14:23:21;;;;;;;4.00;1.45;;;;;;;;;;5065427;28;20431;-79
2022/05/12 14:25:48;;;;;;;3.67;1.60;;;;;;;;;;5068027;28;20415;-78
2022/05/12 14:28:14;;;;;;;3.88;1.60;;;;;;;;;;5067424;28;20423;-80
2022/05/12 14:30:42;;;;;;;3.00;1.40;;;;;;;;;;5071846;28;20450;-80
2022/05/12 14:33:08;;;;;;;3.53;1.65;;;;;;;;;;5071898;28;20414;-80
2022/05/12 14:35:35;;;;;;;2.67;1.23;;;;;;;;;;5073020;28;20411;-79
2022/05/12 14:38:02;;;;;;;3.92;1.50;;;;;;;;;;5071437;28;20962;-82
2022/05/12 14:40:28;;;;;;;2.15;1.00;;;;;;;;;;5069927;28;20446;-80
2022/05/12 14:42:54;;;;;;;5.65;1.50;;;;;;;;;;5067845;28;20416;-81
2022/05/12 14:45:21;;;;;;;3.53;1.10;;;;;;;;;;5072732;28;20428;-82
2022/05/12 14:47:53;;;;;;;2.80;1.75;;;;;;;;;;5068588;28;20460;-79
2022/05/12 14:50:20;;;;;;;1.88;1.10;;;;;;;;;;5070834;28;20467;-81
2022/05/12 14:52:46;;;;;;;3.25;1.40;;;;;;;;;;5072076;28;20489;-80
2022/05/12 14:55:13;;;;;;;2.40;1.00;;;;;;;;;;5072311;28;20419;-81
2022/05/12 14:57:39;;;;;;;8.40;1.50;;;;;;;;;;5069285;28;20410;-79
2022/05/12 15:00:06;;;;;;;3.47;1.40;;;;;;;;;;5072181;28;20463;-80
2022/05/12 15:02:34;;;;;;;4.95;1.40;;;;;;;;;;5111131;22;20413;-81
2022/05/12 15:05:02;;;;;;;5.93;1.70;;;;;;;;;;5054235;28;20409;-82
2022/05/12 15:07:29;;;;;;;5.22;1.60;;;;;;;;;;5054639;28;20536;-81
2022/05/12 15:09:55;;;;;;;6.18;1.60;;;;;;;;;;5054042;28;20508;-81
2022/05/12 15:12:21;;;;;;;3.20;1.50;;;;;;;;;;5046570;28;20814;-82
2022/05/12 15:14:48;;;;;;;4.70;1.80;;;;;;;;;;5046396;28;20443;-81
2022/05/12 15:17:16;;;;;;;4.40;1.58;;;;;;;;;;5045078;28;20574;-81